AST,Max TemperatureF,Mean TemperatureF,Min TemperatureF,Max Dew PointF,MeanDew PointF,Min DewpointF,Max Humidity, Mean Humidity, Min Humidity, Max Sea Level PressureIn, Mean Sea Level PressureIn, Min Sea Level PressureIn, Max VisibilityMiles, Mean VisibilityMiles, Min VisibilityMiles, Max Wind SpeedMPH, Mean Wind SpeedMPH, Max Gust SpeedMPH,PrecipitationIn, CloudCover, Events, WindDirDegrees
2012-11-1,91,84,76,64,60,55,54,45,32,30.02,29.96,29.92,10,7,6,16,8,,0.00,1,,333
2012-11-2,88,83,78,68,64,61,62,53,39,29.99,29.93,29.89,7,6,6,16,9,,0.00,1,,334
2012-11-3,88,82,77,68,65,57,69,55,29,29.99,29.94,29.89,9,6,6,9,5,,0.00,2,,347
2012-11-4,87,83,79,70,66,64,66,57,40,30.03,29.97,29.95,9,6,6,10,6,,0.00,1,,353
2012-11-5,90,82,75,70,62,50,74,51,18,30.04,29.97,29.92,9,6,4,10,4,,0.00,1,,351
2012-11-6,92,83,74,66,55,46,61,39,15,30.02,29.96,29.92,7,5,4,10,4,,0.00,,,310
2012-11-7,95,84,73,72,57,43,74,43,17,30.04,29.96,29.92,7,5,4,10,5,,0.00,,,300
2012-11-8,92,82,73,72,66,54,89,59,29,29.99,29.93,29.89,6,4,1,12,7,,0.00,,,304
2012-11-9,93,84,76,73,66,55,78,57,23,29.99,29.94,29.89,7,6,6,12,6,,0.00,,,332
2012-11-10,88,82,75,73,69,64,78,64,36,30.03,29.97,29.92,7,5,5,8,4,,0.00,,,2
2012-11-11,91,84,76,73,68,51,83,62,17,30.05,29.99,29.95,9,5,4,8,4,,0.00,3,,23
2012-11-12,92,84,75,73,67,55,83,61,20,30.02,29.94,29.89,9,4,2,8,4,,0.00,1,,139
2012-11-13,87,82,76,74,72,64,89,71,46,29.97,29.91,29.86,7,5,4,17,8,,0.00,1,,127
2012-11-14,93,84,76,73,63,45,83,53,20,29.99,29.90,29.86,7,6,4,10,7,,0.00,1,,165
2012-11-15,86,82,77,72,66,59,74,59,44,30.04,29.97,29.89,9,6,5,21,10,,0.00,2,,347
2012-11-16,84,78,73,61,58,55,57,49,34,30.15,30.08,30.01,9,8,7,16,13,,0.00,,,345
2012-11-17,84,78,72,59,57,51,57,48,23,30.18,30.10,30.06,7,7,7,16,9,23,0.00,,,323
2012-11-18,83,76,70,66,62,55,69,59,40,30.14,30.05,30.01,10,8,7,10,6,,0.00,,,342
2012-11-19,83,78,72,70,66,63,74,66,46,30.02,29.97,29.92,9,6,5,10,4,,0.00,3,,109
2012-11-20,80,76,71,68,64,59,73,62,48,30.04,29.97,29.92,9,6,4,16,10,,0.00,3,Rain-Thunderstorm,10
2012-11-21,79,74,68,61,56,50,69,56,27,30.08,30.02,29.98,9,5,4,13,10,,0.00,,,315
2012-11-22,82,75,68,63,58,53,73,56,27,30.08,30.02,29.98,7,5,4,13,7,,0.00,1,,306
2012-11-23,82,76,71,63,61,55,69,60,42,30.08,30.02,29.98,6,6,6,9,5,,0.00,5,,37
2012-11-24,86,80,73,69,64,57,74,61,37,30.03,29.97,29.92,9,6,6,12,5,,0.00,3,,133
2012-11-25,84,80,75,70,68,64,83,69,51,30.04,29.99,29.95,6,5,4,10,4,,0.00,1,,88
2012-11-26,87,82,76,72,67,59,83,63,32,30.00,29.92,29.86,7,5,4,17,11,,0.00,1,,136
2012-11-27,81,76,71,66,60,52,78,57,40,30.07,29.98,29.89,9,5,2,20,11,,0.00,2,,330
2012-11-28,79,74,68,57,52,46,60,47,29,30.15,30.08,30.04,10,7,6,20,12,,0.00,1,,324
2012-11-29,75,72,68,59,53,46,68,53,32,30.16,30.10,30.04,9,6,4,13,10,,0.00,6,Rain,311
2012-11-30,75,70,65,57,48,39,73,48,21,30.20,30.12,30.09,9,5,4,12,8,,0.00,,,299